Connaught, Canada
Current Conditions -  °F | °C
As of 1:00 AM on Friday 31 Oct 2014 (Local Time) from CYTS Reporting Station
Light Snow Light Snow  
Wind Chill: 18°   Ceiling: 3300
Heat Index: 27°   Visibility: 5mi
Dew Point: 25°   Wind: 8mph
Humidity: 93%   Direction: 10°N
Pressure: 30.06"   Gusts: NA
Location:  48.62°N, 80.93°W
Report Text: CYTS 310500Z 01007KT 5SM -SN FEW009 VV033 M03/M04 A3006 RMK SF1SN7 /S01/ SLP195
Loading
Personal Weather Stations






























Interactive Weather Map
Tropical Storm Tracking
New forecast layout! Learn more

10-Day Weather Forecast

Advertisements
Track Severe Weather on mobile